SCELSCCF

Guest
Details From SCEL - Arturo Merino Benitez Intl
To SCCF - EL LOA
Flight Number -
Tags decoded
Created
Modified
Stats Distance 710 nm / 1,315 km
Max Altitude 0 ft / 0 m
Waypoints 7
Social Downloads 0
Likes 0
Share VATSIM

Download

Looking for another format? Having issues loading an existing format? Contact us
Advertisement - Login to hide

Notes

Requested: SCEL DESIT ELBOS VTN TOY BARCA SCCF

Route

SCEL DESIT ELBOS VTN TOY BARCA SCCF

ID Type Via Altitude Latitude Longitude Leg Dist Tot Dist Heading (true) Name
O SCEL APT - 0 ft / 0 m -33.38978˚ -70.79437˚ - 0 nm - Arturo Merino Benitez Intl
DESIT FIX - 0 ft / 0 m -33.53663˚ -70.77951˚ 8 nm 8 nm 175° / 175° -
ELBOS FIX - 0 ft / 0 m -33.47500˚ -71.12278˚ 17 nm 26 nm 282° / 282° -
VTN VOR - 0 ft / 0 m -32.73861˚ -71.49611˚ 48 nm 74 nm 337° / 337° VENTANAS VOR-DME
TOY NDB - 0 ft / 0 m -30.26306˚ -71.47972˚ 148 nm 223 nm 0° / 0° TONGOY NDB
BARCA FIX - 0 ft / 0 m -29.81667˚ -71.43222˚ 26 nm 250 nm 5° / 5° -
O SCCF APT - 0 ft / 0 m -22.49818˚ -68.90358˚ 460 nm 710 nm 18° / 17° EL LOA

Altitude Profile

Advertisement - Login to hide

Weather


0- 5 10 15 20 25 30 35+ Temperature / ° C

Clouds and Precipitation
Forecast for 2018-05-22 06:00 UTC. Updated 2 hours ago

Ground ~20,000 ft ~40,000 ft Winds

SCEL

Details ICAO SCEL (SCL)
Name Arturo Merino Benitez Intl
Region Chile
Timezone America/Santiago (UTC-4.0)
Stats Elevation 1,550 ft / 472 m (AMSL)
Location -33.389775° -70.794366°
Runways 2
Magnetic Variation 1.734° E

METAR

SCEL 220700Z 26001KT 8000 NSC 06/03 Q1018 NOSIG

Decode

TAF

TAF SCEL 220400Z 2206/2306 16004KT 8000 NSC TX24/2219Z TN03/2211Z TEMPO 2207/2212 VRB02KT 5000 HZ BECMG 2216/2218 19012KT CAVOK BECMG 2301/2303 18005KT BECMG 2304/2306 15004KT

Decode

Departure Runways

ID Width Length Bearing (true) Bearing (mag) Surface Threshold Offset Overrun Length
17L 180 ft / 55 m 10,523 ft / 3,207 m 177.43° 175.70° Asphalt 0 ft / 0 m 0 ft / 0 m
17R 148 ft / 45 m 12,504 ft / 3,811 m 177.44° 175.71° Asphalt 0 ft / 0 m 0 ft / 0 m
35L 148 ft / 45 m 12,504 ft / 3,811 m 357.44° 355.71° Asphalt 0 ft / 0 m 0 ft / 0 m
35R 180 ft / 55 m 10,523 ft / 3,207 m 357.43° 355.70° Asphalt 1,800 ft / 549 m 0 ft / 0 m

SCCF

Details ICAO SCCF (CJC)
Name EL LOA
Region Chile
Timezone America/Santiago (UTC-4.0)
Stats Elevation 7,543 ft / 2,299 m (AMSL)
Location -22.498175° -68.903575°
Runways 1
Magnetic Variation 5.347° W

METAR

SCCF 220700Z 10017KT CAVOK M00/M20 Q1027

Decode

TAF

TAF SCCF 220430Z 2206/2306 11020KT CAVOK TN05/2206Z TX21/2217Z BECMG 2214/2215 09008KT BECMG 2217/2219 27017KT BECMG 2323/2301 27005KT BECMG 2303/2305 11018KT

Decode

Destination Runways

ID Width Length Bearing (true) Bearing (mag) Surface Threshold Offset Overrun Length
10 98 ft / 30 m 9,455 ft / 2,882 m 93.61° 98.96° Asphalt 0 ft / 0 m 100 ft / 30 m
28 98 ft / 30 m 9,455 ft / 2,882 m 273.60° 278.95° Asphalt 0 ft / 0 m 100 ft / 30 m

Popular Alternatives